マプト の空港の天気 - METARとTAF

マプト国際空港 ( FQMA / MPM ) - モザンビーク マプト
飛行場実況気象(Metar)
観測時間11/12 06:00 CAT (11/12 04:00 UTC)
風向・風速東 3m/s
視程10km以上
天気現象
全天の4割程度の雲 雲底高度 460m
全天の8割程度の雲 雲底高度 610m
気温23℃
湿度94%
気圧1013hPa
METARFQMA 120400Z 09005KT 9999 SCT015 BKN020 23/22 Q1013 NOSIG
過去の天気等 Google飛行場航空写真 Wunderground天気予報

過去48時間のMETAR

飛行場予報(TAF)
発表時間: 11/12 00:00 CAT (11/11 22:00 UTC)
予報対象時間: 12日2時 CAT ~ 13日8時 CAT
風向・風速南 3m/s
視程10km以上
全天の8割程度の雲 雲底高度 610m
少しの積乱雲 雲底高度 760m
12日2時 CAT ~ 12日6時 CAT に 確率 30% で一時的に
視程5000m
天気現象雷雨
12日14時 CAT ~ 12日16時 CAT に徐々に
風向・風速北北東 6m/s
12日20時 CAT ~ 12日22時 CAT に徐々に
風向・風速南 3m/s
TAF FQMA 112200Z 1200/1306 17006KT 9999 BKN020 FEW025CB TX24/1213Z TN20/1203Z
PROB30 TEMPO 1200/1204 5000 TSRA
BECMG 1212/1214 02012KT
BECMG 1218/1220 17005KT